sensor_id;sensor_type;location;lat;lon;timestamp;P1;durP1;ratioP1;P2;durP2;ratioP2
39190;SDS011;24916;51.676;6.614;2023-12-28T00:00:00;1.73;;;0.90;;
39190;SDS011;24916;51.676;6.614;2023-12-28T00:02:25;1.10;;;0.80;;
39190;SDS011;24916;51.676;6.614;2023-12-28T00:04:50;2.22;;;1.10;;
39190;SDS011;24916;51.676;6.614;2023-12-28T00:07:15;1.63;;;1.05;;
39190;SDS011;24916;51.676;6.614;2023-12-28T00:09:41;1.77;;;0.90;;
39190;SDS011;24916;51.676;6.614;2023-12-28T00:12:06;1.55;;;1.08;;
39190;SDS011;24916;51.676;6.614;2023-12-28T00:14:31;1.08;;;0.93;;
39190;SDS011;24916;51.676;6.614;2023-12-28T00:16:56;2.03;;;1.10;;
39190;SDS011;24916;51.676;6.614;2023-12-28T00:19:22;1.10;;;1.00;;
39190;SDS011;24916;51.676;6.614;2023-12-28T00:21:47;2.53;;;0.88;;
39190;SDS011;24916;51.676;6.614;2023-12-28T00:24:14;1.52;;;0.98;;
39190;SDS011;24916;51.676;6.614;2023-12-28T00:26:39;1.45;;;1.05;;
39190;SDS011;24916;51.676;6.614;2023-12-28T00:29:04;2.03;;;1.40;;
39190;SDS011;24916;51.676;6.614;2023-12-28T00:31:29;0.82;;;0.75;;
39190;SDS011;24916;51.676;6.614;2023-12-28T00:33:55;1.23;;;0.90;;
39190;SDS011;24916;51.676;6.614;2023-12-28T00:36:20;1.20;;;0.97;;
39190;SDS011;24916;51.676;6.614;2023-12-28T00:38:45;1.08;;;0.95;;
39190;SDS011;24916;51.676;6.614;2023-12-28T00:41:10;1.65;;;1.05;;
39190;SDS011;24916;51.676;6.614;2023-12-28T00:43:36;1.10;;;1.00;;
39190;SDS011;24916;51.676;6.614;2023-12-28T00:46:01;1.80;;;0.98;;
39190;SDS011;24916;51.676;6.614;2023-12-28T00:48:27;1.48;;;1.00;;
39190;SDS011;24916;51.676;6.614;2023-12-28T00:50:52;0.98;;;0.88;;
39190;SDS011;24916;51.676;6.614;2023-12-28T00:53:20;2.00;;;1.20;;
39190;SDS011;24916;51.676;6.614;2023-12-28T00:55:45;1.40;;;1.00;;
39190;SDS011;24916;51.676;6.614;2023-12-28T00:58:10;1.05;;;0.82;;
39190;SDS011;24916;51.676;6.614;2023-12-28T01:00:35;1.35;;;1.02;;
39190;SDS011;24916;51.676;6.614;2023-12-28T01:03:01;1.17;;;1.00;;
39190;SDS011;24916;51.676;6.614;2023-12-28T01:05:26;1.27;;;0.90;;
39190;SDS011;24916;51.676;6.614;2023-12-28T01:07:53;1.40;;;1.00;;
39190;SDS011;24916;51.676;6.614;2023-12-28T01:10:18;1.17;;;0.90;;
39190;SDS011;24916;51.676;6.614;2023-12-28T01:12:43;1.63;;;0.93;;
39190;SDS011;24916;51.676;6.614;2023-12-28T01:15:09;1.10;;;0.80;;
39190;SDS011;24916;51.676;6.614;2023-12-28T01:17:35;1.55;;;1.00;;
39190;SDS011;24916;51.676;6.614;2023-12-28T01:20:00;1.48;;;1.13;;
39190;SDS011;24916;51.676;6.614;2023-12-28T01:22:25;1.48;;;0.85;;
39190;SDS011;24916;51.676;6.614;2023-12-28T01:24:50;0.95;;;0.85;;
39190;SDS011;24916;51.676;6.614;2023-12-28T01:27:16;1.23;;;0.90;;
39190;SDS011;24916;51.676;6.614;2023-12-28T01:29:41;1.75;;;1.00;;
39190;SDS011;24916;51.676;6.614;2023-12-28T01:32:06;1.15;;;1.05;;
39190;SDS011;24916;51.676;6.614;2023-12-28T01:34:33;1.00;;;0.90;;
39190;SDS011;24916;51.676;6.614;2023-12-28T01:36:58;1.47;;;1.00;;
39190;SDS011;24916;51.676;6.614;2023-12-28T01:39:23;1.10;;;0.90;;
39190;SDS011;24916;51.676;6.614;2023-12-28T01:41:48;1.13;;;0.90;;
39190;SDS011;24916;51.676;6.614;2023-12-28T01:44:14;1.45;;;0.80;;
39190;SDS011;24916;51.676;6.614;2023-12-28T01:46:39;2.03;;;1.08;;
39190;SDS011;24916;51.676;6.614;2023-12-28T01:49:05;1.27;;;1.00;;
39190;SDS011;24916;51.676;6.614;2023-12-28T01:51:30;1.40;;;0.90;;
39190;SDS011;24916;51.676;6.614;2023-12-28T01:53:56;1.17;;;0.90;;
39190;SDS011;24916;51.676;6.614;2023-12-28T01:56:22;2.35;;;0.70;;
39190;SDS011;24916;51.676;6.614;2023-12-28T01:58:48;1.48;;;1.05;;
39190;SDS011;24916;51.676;6.614;2023-12-28T02:01:14;0.95;;;0.80;;
39190;SDS011;24916;51.676;6.614;2023-12-28T02:03:39;1.65;;;0.80;;
39190;SDS011;24916;51.676;6.614;2023-12-28T02:06:05;1.30;;;0.93;;
39190;SDS011;24916;51.676;6.614;2023-12-28T02:08:31;1.08;;;0.98;;
39190;SDS011;24916;51.676;6.614;2023-12-28T02:10:56;1.58;;;0.88;;
39190;SDS011;24916;51.676;6.614;2023-12-28T02:13:22;1.27;;;1.00;;
39190;SDS011;24916;51.676;6.614;2023-12-28T02:15:47;1.48;;;0.82;;
39190;SDS011;24916;51.676;6.614;2023-12-28T02:18:20;1.05;;;0.95;;
39190;SDS011;24916;51.676;6.614;2023-12-28T02:20:46;1.23;;;1.00;;
39190;SDS011;24916;51.676;6.614;2023-12-28T02:23:12;1.25;;;0.90;;
39190;SDS011;24916;51.676;6.614;2023-12-28T02:25:37;1.25;;;1.00;;
39190;SDS011;24916;51.676;6.614;2023-12-28T02:28:02;1.08;;;1.00;;
39190;SDS011;24916;51.676;6.614;2023-12-28T02:30:28;0.77;;;0.70;;
39190;SDS011;24916;51.676;6.614;2023-12-28T02:35:32;1.90;;;0.90;;
39190;SDS011;24916;51.676;6.614;2023-12-28T02:37:59;1.85;;;1.00;;
39190;SDS011;24916;51.676;6.614;2023-12-28T02:40:24;1.58;;;1.00;;
39190;SDS011;24916;51.676;6.614;2023-12-28T02:42:51;0.70;;;0.70;;
39190;SDS011;24916;51.676;6.614;2023-12-28T02:45:17;1.05;;;0.90;;
39190;SDS011;24916;51.676;6.614;2023-12-28T02:47:43;0.95;;;0.82;;
39190;SDS011;24916;51.676;6.614;2023-12-28T02:50:09;1.05;;;0.80;;
39190;SDS011;24916;51.676;6.614;2023-12-28T02:52:34;1.20;;;0.80;;
39190;SDS011;24916;51.676;6.614;2023-12-28T02:54:59;1.00;;;0.90;;
39190;SDS011;24916;51.676;6.614;2023-12-28T02:57:25;1.20;;;0.77;;
39190;SDS011;24916;51.676;6.614;2023-12-28T02:59:50;0.70;;;0.70;;
39190;SDS011;24916;51.676;6.614;2023-12-28T03:02:16;1.10;;;0.90;;
39190;SDS011;24916;51.676;6.614;2023-12-28T03:04:41;1.13;;;0.80;;
39190;SDS011;24916;51.676;6.614;2023-12-28T03:07:07;0.77;;;0.77;;
39190;SDS011;24916;51.676;6.614;2023-12-28T03:09:32;1.05;;;0.85;;
39190;SDS011;24916;51.676;6.614;2023-12-28T03:11:59;1.20;;;0.90;;
39190;SDS011;24916;51.676;6.614;2023-12-28T03:14:24;0.90;;;0.80;;
39190;SDS011;24916;51.676;6.614;2023-12-28T03:16:49;1.33;;;0.93;;
39190;SDS011;24916;51.676;6.614;2023-12-28T03:19:15;3.75;;;1.15;;
39190;SDS011;24916;51.676;6.614;2023-12-28T03:21:40;0.70;;;0.70;;
39190;SDS011;24916;51.676;6.614;2023-12-28T03:24:05;1.15;;;0.85;;
39190;SDS011;24916;51.676;6.614;2023-12-28T03:26:31;1.00;;;0.77;;
39190;SDS011;24916;51.676;6.614;2023-12-28T03:28:56;0.98;;;0.80;;
39190;SDS011;24916;51.676;6.614;2023-12-28T03:31:21;1.90;;;0.90;;
39190;SDS011;24916;51.676;6.614;2023-12-28T03:33:47;1.15;;;0.85;;
39190;SDS011;24916;51.676;6.614;2023-12-28T03:36:18;1.30;;;0.90;;
39190;SDS011;24916;51.676;6.614;2023-12-28T03:38:44;0.70;;;0.63;;
39190;SDS011;24916;51.676;6.614;2023-12-28T03:41:19;0.88;;;0.68;;
39190;SDS011;24916;51.676;6.614;2023-12-28T03:43:47;1.00;;;0.80;;
39190;SDS011;24916;51.676;6.614;2023-12-28T03:46:13;1.45;;;1.08;;
39190;SDS011;24916;51.676;6.614;2023-12-28T03:48:38;1.20;;;0.90;;
39190;SDS011;24916;51.676;6.614;2023-12-28T03:51:04;0.70;;;0.70;;
39190;SDS011;24916;51.676;6.614;2023-12-28T03:53:29;1.13;;;0.88;;
39190;SDS011;24916;51.676;6.614;2023-12-28T03:55:56;1.50;;;0.90;;
39190;SDS011;24916;51.676;6.614;2023-12-28T03:58:22;1.20;;;0.85;;
39190;SDS011;24916;51.676;6.614;2023-12-28T04:00:47;0.85;;;0.80;;
39190;SDS011;24916;51.676;6.614;2023-12-28T04:03:13;1.05;;;0.88;;
39190;SDS011;24916;51.676;6.614;2023-12-28T04:05:38;1.25;;;0.82;;
39190;SDS011;24916;51.676;6.614;2023-12-28T04:08:03;0.90;;;0.70;;
39190;SDS011;24916;51.676;6.614;2023-12-28T04:10:29;1.15;;;0.98;;
39190;SDS011;24916;51.676;6.614;2023-12-28T04:12:56;1.25;;;0.93;;
39190;SDS011;24916;51.676;6.614;2023-12-28T04:15:22;2.83;;;0.90;;
39190;SDS011;24916;51.676;6.614;2023-12-28T04:17:48;1.05;;;0.95;;
39190;SDS011;24916;51.676;6.614;2023-12-28T04:20:13;1.13;;;0.90;;
39190;SDS011;24916;51.676;6.614;2023-12-28T04:22:38;1.10;;;0.75;;
39190;SDS011;24916;51.676;6.614;2023-12-28T04:25:03;0.90;;;0.83;;
39190;SDS011;24916;51.676;6.614;2023-12-28T04:27:29;1.23;;;0.90;;
39190;SDS011;24916;51.676;6.614;2023-12-28T04:29:54;1.20;;;0.93;;
39190;SDS011;24916;51.676;6.614;2023-12-28T04:32:19;1.10;;;0.90;;
39190;SDS011;24916;51.676;6.614;2023-12-28T04:34:44;1.20;;;0.90;;
39190;SDS011;24916;51.676;6.614;2023-12-28T04:37:09;1.50;;;1.00;;
39190;SDS011;24916;51.676;6.614;2023-12-28T04:39:35;1.25;;;0.93;;
39190;SDS011;24916;51.676;6.614;2023-12-28T04:42:00;1.00;;;0.90;;
39190;SDS011;24916;51.676;6.614;2023-12-28T04:44:25;0.90;;;0.75;;
39190;SDS011;24916;51.676;6.614;2023-12-28T04:46:51;1.20;;;0.90;;
39190;SDS011;24916;51.676;6.614;2023-12-28T04:49:16;0.95;;;0.77;;
39190;SDS011;24916;51.676;6.614;2023-12-28T04:51:44;1.33;;;0.80;;
39190;SDS011;24916;51.676;6.614;2023-12-28T04:54:10;0.70;;;0.70;;
39190;SDS011;24916;51.676;6.614;2023-12-28T04:56:35;0.75;;;0.70;;
39190;SDS011;24916;51.676;6.614;2023-12-28T04:59:00;0.82;;;0.80;;
39190;SDS011;24916;51.676;6.614;2023-12-28T05:01:25;1.10;;;0.90;;
39190;SDS011;24916;51.676;6.614;2023-12-28T05:03:50;0.88;;;0.70;;
39190;SDS011;24916;51.676;6.614;2023-12-28T05:06:16;0.90;;;0.60;;
39190;SDS011;24916;51.676;6.614;2023-12-28T05:08:41;0.90;;;0.70;;
39190;SDS011;24916;51.676;6.614;2023-12-28T05:11:06;1.05;;;0.70;;
39190;SDS011;24916;51.676;6.614;2023-12-28T05:13:31;0.80;;;0.80;;
39190;SDS011;24916;51.676;6.614;2023-12-28T05:15:57;0.77;;;0.70;;
39190;SDS011;24916;51.676;6.614;2023-12-28T05:18:22;1.20;;;0.73;;
39190;SDS011;24916;51.676;6.614;2023-12-28T05:20:47;1.00;;;0.80;;
39190;SDS011;24916;51.676;6.614;2023-12-28T05:23:12;0.88;;;0.80;;
39190;SDS011;24916;51.676;6.614;2023-12-28T05:25:38;1.55;;;0.90;;
39190;SDS011;24916;51.676;6.614;2023-12-28T05:28:03;1.10;;;0.90;;
39190;SDS011;24916;51.676;6.614;2023-12-28T05:30:28;0.60;;;0.60;;
39190;SDS011;24916;51.676;6.614;2023-12-28T05:32:53;0.70;;;0.70;;
39190;SDS011;24916;51.676;6.614;2023-12-28T05:35:19;1.27;;;0.80;;
39190;SDS011;24916;51.676;6.614;2023-12-28T05:37:44;0.90;;;0.80;;
39190;SDS011;24916;51.676;6.614;2023-12-28T05:40:09;1.25;;;0.95;;
39190;SDS011;24916;51.676;6.614;2023-12-28T05:42:35;0.70;;;0.60;;
39190;SDS011;24916;51.676;6.614;2023-12-28T05:45:00;0.77;;;0.60;;
39190;SDS011;24916;51.676;6.614;2023-12-28T05:47:25;1.35;;;1.00;;
39190;SDS011;24916;51.676;6.614;2023-12-28T05:49:50;1.92;;;0.80;;
39190;SDS011;24916;51.676;6.614;2023-12-28T05:52:16;0.90;;;0.80;;
39190;SDS011;24916;51.676;6.614;2023-12-28T05:54:44;0.95;;;0.65;;
39190;SDS011;24916;51.676;6.614;2023-12-28T05:57:09;0.98;;;0.73;;
39190;SDS011;24916;51.676;6.614;2023-12-28T05:59:37;1.08;;;0.85;;
39190;SDS011;24916;51.676;6.614;2023-12-28T06:02:02;1.00;;;0.77;;
39190;SDS011;24916;51.676;6.614;2023-12-28T06:04:28;0.70;;;0.70;;
39190;SDS011;24916;51.676;6.614;2023-12-28T06:06:53;0.80;;;0.80;;
39190;SDS011;24916;51.676;6.614;2023-12-28T06:09:18;1.27;;;1.00;;
39190;SDS011;24916;51.676;6.614;2023-12-28T06:11:44;1.35;;;1.00;;
39190;SDS011;24916;51.676;6.614;2023-12-28T06:14:09;0.70;;;0.70;;
39190;SDS011;24916;51.676;6.614;2023-12-28T06:16:34;1.10;;;0.90;;
39190;SDS011;24916;51.676;6.614;2023-12-28T06:19:00;1.38;;;0.80;;
39190;SDS011;24916;51.676;6.614;2023-12-28T06:21:26;1.30;;;0.73;;
39190;SDS011;24916;51.676;6.614;2023-12-28T06:23:51;1.33;;;0.90;;
39190;SDS011;24916;51.676;6.614;2023-12-28T06:26:16;1.00;;;0.80;;
39190;SDS011;24916;51.676;6.614;2023-12-28T06:28:42;1.42;;;0.70;;
39190;SDS011;24916;51.676;6.614;2023-12-28T06:31:07;0.95;;;0.75;;
39190;SDS011;24916;51.676;6.614;2023-12-28T06:33:32;0.82;;;0.80;;
39190;SDS011;24916;51.676;6.614;2023-12-28T06:35:58;0.95;;;0.80;;
39190;SDS011;24916;51.676;6.614;2023-12-28T06:38:23;2.03;;;0.93;;
39190;SDS011;24916;51.676;6.614;2023-12-28T06:40:49;1.20;;;0.80;;
39190;SDS011;24916;51.676;6.614;2023-12-28T06:43:14;1.08;;;0.80;;
39190;SDS011;24916;51.676;6.614;2023-12-28T06:45:41;1.10;;;0.90;;
39190;SDS011;24916;51.676;6.614;2023-12-28T06:48:06;1.23;;;0.80;;
39190;SDS011;24916;51.676;6.614;2023-12-28T06:50:31;1.20;;;0.95;;
39190;SDS011;24916;51.676;6.614;2023-12-28T06:52:56;0.70;;;0.57;;
39190;SDS011;24916;51.676;6.614;2023-12-28T06:55:22;0.93;;;0.68;;
39190;SDS011;24916;51.676;6.614;2023-12-28T06:57:47;1.40;;;0.80;;
39190;SDS011;24916;51.676;6.614;2023-12-28T07:00:13;1.50;;;0.83;;
39190;SDS011;24916;51.676;6.614;2023-12-28T07:02:38;1.30;;;0.85;;
39190;SDS011;24916;51.676;6.614;2023-12-28T07:05:03;1.02;;;0.80;;
39190;SDS011;24916;51.676;6.614;2023-12-28T07:07:29;0.82;;;0.70;;
39190;SDS011;24916;51.676;6.614;2023-12-28T07:09:54;1.58;;;0.90;;
39190;SDS011;24916;51.676;6.614;2023-12-28T07:12:20;1.23;;;0.75;;
39190;SDS011;24916;51.676;6.614;2023-12-28T07:14:45;1.23;;;0.95;;
39190;SDS011;24916;51.676;6.614;2023-12-28T07:17:10;1.23;;;0.70;;
39190;SDS011;24916;51.676;6.614;2023-12-28T07:19:37;2.63;;;0.90;;
39190;SDS011;24916;51.676;6.614;2023-12-28T07:22:02;2.20;;;0.98;;
39190;SDS011;24916;51.676;6.614;2023-12-28T07:24:27;2.45;;;0.70;;
39190;SDS011;24916;51.676;6.614;2023-12-28T07:26:52;1.10;;;0.98;;
39190;SDS011;24916;51.676;6.614;2023-12-28T07:29:18;3.45;;;1.00;;
39190;SDS011;24916;51.676;6.614;2023-12-28T07:31:43;1.98;;;0.80;;
39190;SDS011;24916;51.676;6.614;2023-12-28T07:34:08;1.30;;;0.60;;
39190;SDS011;24916;51.676;6.614;2023-12-28T07:36:34;1.38;;;0.88;;
39190;SDS011;24916;51.676;6.614;2023-12-28T07:38:59;1.27;;;0.80;;
39190;SDS011;24916;51.676;6.614;2023-12-28T07:41:24;1.55;;;0.80;;
39190;SDS011;24916;51.676;6.614;2023-12-28T07:43:49;1.23;;;0.80;;
39190;SDS011;24916;51.676;6.614;2023-12-28T07:46:15;1.13;;;0.80;;
39190;SDS011;24916;51.676;6.614;2023-12-28T07:48:40;4.82;;;0.90;;
39190;SDS011;24916;51.676;6.614;2023-12-28T07:51:06;2.50;;;0.80;;
39190;SDS011;24916;51.676;6.614;2023-12-28T07:53:32;1.33;;;0.80;;
39190;SDS011;24916;51.676;6.614;2023-12-28T07:55:57;2.28;;;0.88;;
39190;SDS011;24916;51.676;6.614;2023-12-28T07:58:22;1.38;;;0.80;;
39190;SDS011;24916;51.676;6.614;2023-12-28T08:00:47;1.50;;;0.93;;
39190;SDS011;24916;51.676;6.614;2023-12-28T08:03:14;1.23;;;0.88;;
39190;SDS011;24916;51.676;6.614;2023-12-28T08:05:40;6.65;;;1.02;;
39190;SDS011;24916;51.676;6.614;2023-12-28T08:08:06;1.38;;;0.80;;
39190;SDS011;24916;51.676;6.614;2023-12-28T08:10:31;3.28;;;0.90;;
39190;SDS011;24916;51.676;6.614;2023-12-28T08:12:56;1.15;;;0.82;;
39190;SDS011;24916;51.676;6.614;2023-12-28T08:15:21;2.20;;;0.90;;
39190;SDS011;24916;51.676;6.614;2023-12-28T08:17:47;2.45;;;1.02;;
39190;SDS011;24916;51.676;6.614;2023-12-28T08:20:12;1.85;;;1.05;;
39190;SDS011;24916;51.676;6.614;2023-12-28T08:22:37;2.28;;;1.00;;
39190;SDS011;24916;51.676;6.614;2023-12-28T08:25:02;2.53;;;1.05;;
39190;SDS011;24916;51.676;6.614;2023-12-28T08:27:28;1.85;;;1.10;;
39190;SDS011;24916;51.676;6.614;2023-12-28T08:29:53;2.65;;;0.98;;
39190;SDS011;24916;51.676;6.614;2023-12-28T08:32:18;1.85;;;0.80;;
39190;SDS011;24916;51.676;6.614;2023-12-28T08:34:43;2.28;;;1.10;;
39190;SDS011;24916;51.676;6.614;2023-12-28T08:37:09;2.22;;;1.05;;
39190;SDS011;24916;51.676;6.614;2023-12-28T08:39:35;1.60;;;0.93;;
39190;SDS011;24916;51.676;6.614;2023-12-28T08:42:00;3.03;;;1.00;;
39190;SDS011;24916;51.676;6.614;2023-12-28T08:44:26;3.15;;;1.05;;
39190;SDS011;24916;51.676;6.614;2023-12-28T08:46:51;3.35;;;1.10;;
39190;SDS011;24916;51.676;6.614;2023-12-28T08:49:16;4.18;;;1.10;;
39190;SDS011;24916;51.676;6.614;2023-12-28T08:51:42;3.58;;;1.20;;
39190;SDS011;24916;51.676;6.614;2023-12-28T08:54:07;4.20;;;1.10;;
39190;SDS011;24916;51.676;6.614;2023-12-28T08:56:34;5.03;;;1.30;;
39190;SDS011;24916;51.676;6.614;2023-12-28T08:58:59;4.00;;;1.02;;
39190;SDS011;24916;51.676;6.614;2023-12-28T09:01:24;2.15;;;1.10;;
39190;SDS011;24916;51.676;6.614;2023-12-28T09:03:54;4.38;;;1.13;;
39190;SDS011;24916;51.676;6.614;2023-12-28T09:06:19;2.83;;;1.30;;
39190;SDS011;24916;51.676;6.614;2023-12-28T09:08:45;3.58;;;1.20;;
39190;SDS011;24916;51.676;6.614;2023-12-28T09:11:12;4.13;;;1.00;;
39190;SDS011;24916;51.676;6.614;2023-12-28T09:13:38;3.58;;;1.15;;
39190;SDS011;24916;51.676;6.614;2023-12-28T09:16:03;2.78;;;1.00;;
39190;SDS011;24916;51.676;6.614;2023-12-28T09:18:28;3.03;;;1.13;;
39190;SDS011;24916;51.676;6.614;2023-12-28T09:20:54;3.05;;;1.33;;
39190;SDS011;24916;51.676;6.614;2023-12-28T09:23:20;2.95;;;1.20;;
39190;SDS011;24916;51.676;6.614;2023-12-28T09:25:45;2.65;;;1.05;;
39190;SDS011;24916;51.676;6.614;2023-12-28T09:28:10;3.05;;;1.10;;
39190;SDS011;24916;51.676;6.614;2023-12-28T09:30:36;4.20;;;1.20;;
39190;SDS011;24916;51.676;6.614;2023-12-28T09:33:01;3.42;;;1.40;;
39190;SDS011;24916;51.676;6.614;2023-12-28T09:35:26;1.70;;;1.08;;
39190;SDS011;24916;51.676;6.614;2023-12-28T09:37:52;2.80;;;1.27;;
39190;SDS011;24916;51.676;6.614;2023-12-28T09:40:17;3.25;;;1.30;;
39190;SDS011;24916;51.676;6.614;2023-12-28T09:42:50;4.65;;;1.45;;
39190;SDS011;24916;51.676;6.614;2023-12-28T09:45:19;3.08;;;1.20;;
39190;SDS011;24916;51.676;6.614;2023-12-28T09:47:46;3.47;;;1.20;;
39190;SDS011;24916;51.676;6.614;2023-12-28T09:50:13;2.63;;;1.40;;
39190;SDS011;24916;51.676;6.614;2023-12-28T09:52:39;3.22;;;1.35;;
39190;SDS011;24916;51.676;6.614;2023-12-28T09:55:04;2.15;;;1.27;;
39190;SDS011;24916;51.676;6.614;2023-12-28T09:57:30;2.63;;;1.15;;
39190;SDS011;24916;51.676;6.614;2023-12-28T09:59:55;3.38;;;1.40;;
39190;SDS011;24916;51.676;6.614;2023-12-28T10:02:20;3.60;;;1.40;;
39190;SDS011;24916;51.676;6.614;2023-12-28T10:04:46;3.00;;;1.10;;
39190;SDS011;24916;51.676;6.614;2023-12-28T10:07:11;3.35;;;1.50;;
39190;SDS011;24916;51.676;6.614;2023-12-28T10:09:36;2.35;;;1.13;;
39190;SDS011;24916;51.676;6.614;2023-12-28T10:12:01;4.28;;;1.25;;
39190;SDS011;24916;51.676;6.614;2023-12-28T10:14:28;2.03;;;1.25;;
39190;SDS011;24916;51.676;6.614;2023-12-28T10:16:53;4.80;;;1.30;;
39190;SDS011;24916;51.676;6.614;2023-12-28T10:19:22;2.83;;;1.20;;
39190;SDS011;24916;51.676;6.614;2023-12-28T10:21:48;5.65;;;1.50;;
39190;SDS011;24916;51.676;6.614;2023-12-28T10:24:13;2.63;;;1.30;;
39190;SDS011;24916;51.676;6.614;2023-12-28T10:26:38;3.30;;;1.33;;
39190;SDS011;24916;51.676;6.614;2023-12-28T10:29:04;4.82;;;1.10;;
39190;SDS011;24916;51.676;6.614;2023-12-28T10:31:30;2.03;;;1.20;;
39190;SDS011;24916;51.676;6.614;2023-12-28T10:33:59;4.10;;;1.40;;
39190;SDS011;24916;51.676;6.614;2023-12-28T10:36:27;3.42;;;1.67;;
39190;SDS011;24916;51.676;6.614;2023-12-28T10:38:53;2.28;;;1.25;;
39190;SDS011;24916;51.676;6.614;2023-12-28T10:41:18;3.22;;;1.23;;
39190;SDS011;24916;51.676;6.614;2023-12-28T10:43:57;2.63;;;1.20;;
39190;SDS011;24916;51.676;6.614;2023-12-28T10:46:26;3.35;;;1.30;;
39190;SDS011;24916;51.676;6.614;2023-12-28T10:48:52;4.53;;;1.27;;
39190;SDS011;24916;51.676;6.614;2023-12-28T10:51:23;2.60;;;1.52;;
39190;SDS011;24916;51.676;6.614;2023-12-28T10:53:55;3.38;;;1.45;;
39190;SDS011;24916;51.676;6.614;2023-12-28T11:01:42;3.05;;;1.50;;
39190;SDS011;24916;51.676;6.614;2023-12-28T11:04:17;2.95;;;1.55;;
39190;SDS011;24916;51.676;6.614;2023-12-28T11:06:47;3.30;;;1.30;;
39190;SDS011;24916;51.676;6.614;2023-12-28T11:09:13;2.90;;;1.23;;
39190;SDS011;24916;51.676;6.614;2023-12-28T11:11:40;4.30;;;1.30;;
39190;SDS011;24916;51.676;6.614;2023-12-28T11:14:06;3.08;;;1.35;;
39190;SDS011;24916;51.676;6.614;2023-12-28T11:16:32;3.47;;;1.48;;
39190;SDS011;24916;51.676;6.614;2023-12-28T11:18:58;3.45;;;1.38;;
39190;SDS011;24916;51.676;6.614;2023-12-28T11:21:24;2.95;;;1.30;;
39190;SDS011;24916;51.676;6.614;2023-12-28T11:23:50;2.25;;;1.30;;
39190;SDS011;24916;51.676;6.614;2023-12-28T11:26:17;2.38;;;1.20;;
39190;SDS011;24916;51.676;6.614;2023-12-28T11:28:43;3.53;;;1.25;;
39190;SDS011;24916;51.676;6.614;2023-12-28T11:31:14;3.42;;;1.35;;
39190;SDS011;24916;51.676;6.614;2023-12-28T11:33:52;3.42;;;1.50;;
39190;SDS011;24916;51.676;6.614;2023-12-28T11:36:22;3.58;;;1.17;;
39190;SDS011;24916;51.676;6.614;2023-12-28T11:38:49;3.58;;;1.63;;
39190;SDS011;24916;51.676;6.614;2023-12-28T11:41:19;3.15;;;1.40;;
39190;SDS011;24916;51.676;6.614;2023-12-28T11:43:51;3.17;;;1.33;;
39190;SDS011;24916;51.676;6.614;2023-12-28T11:46:16;2.97;;;1.35;;
39190;SDS011;24916;51.676;6.614;2023-12-28T11:48:42;3.05;;;1.20;;
39190;SDS011;24916;51.676;6.614;2023-12-28T11:51:07;2.60;;;1.40;;
39190;SDS011;24916;51.676;6.614;2023-12-28T11:53:33;3.35;;;1.63;;
39190;SDS011;24916;51.676;6.614;2023-12-28T11:55:59;3.92;;;1.40;;
39190;SDS011;24916;51.676;6.614;2023-12-28T11:58:26;2.40;;;1.20;;
39190;SDS011;24916;51.676;6.614;2023-12-28T12:00:51;2.80;;;1.17;;
39190;SDS011;24916;51.676;6.614;2023-12-28T12:03:16;2.50;;;1.30;;
39190;SDS011;24916;51.676;6.614;2023-12-28T12:05:41;3.78;;;1.20;;
39190;SDS011;24916;51.676;6.614;2023-12-28T12:08:08;2.55;;;1.50;;
39190;SDS011;24916;51.676;6.614;2023-12-28T12:10:35;2.10;;;1.20;;
39190;SDS011;24916;51.676;6.614;2023-12-28T12:13:01;3.63;;;1.48;;
39190;SDS011;24916;51.676;6.614;2023-12-28T12:15:27;4.90;;;1.50;;
39190;SDS011;24916;51.676;6.614;2023-12-28T12:17:54;3.53;;;1.77;;
39190;SDS011;24916;51.676;6.614;2023-12-28T12:20:19;4.18;;;1.33;;
39190;SDS011;24916;51.676;6.614;2023-12-28T12:22:44;3.47;;;1.50;;
39190;SDS011;24916;51.676;6.614;2023-12-28T12:25:10;3.25;;;1.30;;
39190;SDS011;24916;51.676;6.614;2023-12-28T12:27:36;4.45;;;1.42;;
39190;SDS011;24916;51.676;6.614;2023-12-28T12:30:01;3.67;;;1.55;;
39190;SDS011;24916;51.676;6.614;2023-12-28T12:32:27;3.55;;;1.33;;
39190;SDS011;24916;51.676;6.614;2023-12-28T12:34:52;3.20;;;1.33;;
39190;SDS011;24916;51.676;6.614;2023-12-28T12:37:17;6.07;;;2.00;;
39190;SDS011;24916;51.676;6.614;2023-12-28T12:39:43;3.10;;;1.23;;
39190;SDS011;24916;51.676;6.614;2023-12-28T12:42:12;2.63;;;1.50;;
39190;SDS011;24916;51.676;6.614;2023-12-28T12:44:37;3.78;;;1.50;;
39190;SDS011;24916;51.676;6.614;2023-12-28T12:47:03;3.42;;;1.60;;
39190;SDS011;24916;51.676;6.614;2023-12-28T12:49:29;2.00;;;1.20;;
39190;SDS011;24916;51.676;6.614;2023-12-28T12:51:54;4.15;;;1.40;;
39190;SDS011;24916;51.676;6.614;2023-12-28T12:54:19;4.45;;;1.63;;
39190;SDS011;24916;51.676;6.614;2023-12-28T12:56:45;4.32;;;1.52;;
39190;SDS011;24916;51.676;6.614;2023-12-28T12:59:10;3.20;;;1.40;;
39190;SDS011;24916;51.676;6.614;2023-12-28T13:01:43;2.20;;;1.10;;
39190;SDS011;24916;51.676;6.614;2023-12-28T13:04:16;3.72;;;1.48;;
39190;SDS011;24916;51.676;6.614;2023-12-28T13:06:41;3.67;;;1.70;;
39190;SDS011;24916;51.676;6.614;2023-12-28T13:09:07;4.32;;;1.50;;
39190;SDS011;24916;51.676;6.614;2023-12-28T13:11:33;4.70;;;1.85;;
39190;SDS011;24916;51.676;6.614;2023-12-28T13:13:58;2.97;;;1.63;;
39190;SDS011;24916;51.676;6.614;2023-12-28T13:16:23;3.65;;;1.58;;
39190;SDS011;24916;51.676;6.614;2023-12-28T13:18:48;3.97;;;1.55;;
39190;SDS011;24916;51.676;6.614;2023-12-28T13:21:14;5.35;;;1.75;;
39190;SDS011;24916;51.676;6.614;2023-12-28T13:23:39;4.25;;;1.52;;
39190;SDS011;24916;51.676;6.614;2023-12-28T13:26:05;4.43;;;1.60;;
39190;SDS011;24916;51.676;6.614;2023-12-28T13:28:30;3.10;;;1.40;;
39190;SDS011;24916;51.676;6.614;2023-12-28T13:30:55;1.95;;;1.35;;
39190;SDS011;24916;51.676;6.614;2023-12-28T13:33:21;3.42;;;1.42;;
39190;SDS011;24916;51.676;6.614;2023-12-28T13:35:47;3.47;;;1.48;;
39190;SDS011;24916;51.676;6.614;2023-12-28T13:38:12;4.53;;;1.50;;
39190;SDS011;24916;51.676;6.614;2023-12-28T13:40:37;3.75;;;1.65;;
39190;SDS011;24916;51.676;6.614;2023-12-28T13:43:02;3.65;;;1.50;;
39190;SDS011;24916;51.676;6.614;2023-12-28T13:45:28;4.30;;;1.73;;
39190;SDS011;24916;51.676;6.614;2023-12-28T13:47:53;2.85;;;1.30;;
39190;SDS011;24916;51.676;6.614;2023-12-28T13:50:18;4.88;;;1.40;;
39190;SDS011;24916;51.676;6.614;2023-12-28T13:52:45;6.45;;;2.70;;
39190;SDS011;24916;51.676;6.614;2023-12-28T13:55:10;5.72;;;2.42;;
39190;SDS011;24916;51.676;6.614;2023-12-28T13:57:36;11.10;;;3.13;;
39190;SDS011;24916;51.676;6.614;2023-12-28T14:00:01;9.80;;;3.25;;
39190;SDS011;24916;51.676;6.614;2023-12-28T14:02:27;11.90;;;4.07;;
39190;SDS011;24916;51.676;6.614;2023-12-28T14:04:52;10.05;;;4.00;;
39190;SDS011;24916;51.676;6.614;2023-12-28T14:07:21;11.02;;;4.15;;
39190;SDS011;24916;51.676;6.614;2023-12-28T14:09:46;11.15;;;4.57;;
39190;SDS011;24916;51.676;6.614;2023-12-28T14:12:11;11.45;;;4.93;;
39190;SDS011;24916;51.676;6.614;2023-12-28T14:14:36;12.77;;;5.38;;
39190;SDS011;24916;51.676;6.614;2023-12-28T14:17:01;10.90;;;4.97;;
39190;SDS011;24916;51.676;6.614;2023-12-28T14:19:29;12.75;;;4.70;;
39190;SDS011;24916;51.676;6.614;2023-12-28T14:21:54;12.68;;;5.22;;
39190;SDS011;24916;51.676;6.614;2023-12-28T14:24:20;13.18;;;4.53;;
39190;SDS011;24916;51.676;6.614;2023-12-28T14:26:45;11.15;;;4.57;;
39190;SDS011;24916;51.676;6.614;2023-12-28T14:29:10;11.68;;;4.63;;
39190;SDS011;24916;51.676;6.614;2023-12-28T14:31:36;11.30;;;4.50;;
39190;SDS011;24916;51.676;6.614;2023-12-28T14:34:01;10.88;;;4.40;;
39190;SDS011;24916;51.676;6.614;2023-12-28T14:36:31;10.65;;;4.15;;
39190;SDS011;24916;51.676;6.614;2023-12-28T14:39:00;9.18;;;3.80;;
39190;SDS011;24916;51.676;6.614;2023-12-28T14:41:26;8.93;;;3.83;;
39190;SDS011;24916;51.676;6.614;2023-12-28T14:43:52;10.15;;;4.22;;
39190;SDS011;24916;51.676;6.614;2023-12-28T14:46:17;9.38;;;4.28;;